createdAt,value
2019-05-15T00:00:03.528Z,0.00
2019-05-15T00:01:03.513Z,0.00
2019-05-15T00:02:03.527Z,0.00
2019-05-15T00:03:03.492Z,0.00
2019-05-15T00:04:03.496Z,0.00
2019-05-15T00:05:03.471Z,0.00
2019-05-15T00:06:03.463Z,0.00
2019-05-15T00:07:03.448Z,0.00
2019-05-15T00:08:03.442Z,0.00
2019-05-15T00:09:03.435Z,0.00
2019-05-15T00:10:03.420Z,0.00
2019-05-15T00:11:03.405Z,0.00
2019-05-15T00:12:03.396Z,0.00
2019-05-15T00:13:03.383Z,0.00
2019-05-15T00:14:03.375Z,0.00
2019-05-15T00:15:03.362Z,0.00
2019-05-15T00:16:03.347Z,0.00
2019-05-15T00:17:03.336Z,0.00
2019-05-15T00:18:03.330Z,0.00
2019-05-15T00:19:03.445Z,0.00
2019-05-15T00:20:03.350Z,0.00
2019-05-15T00:21:03.302Z,0.00
2019-05-15T00:22:03.277Z,0.00
2019-05-15T00:23:03.266Z,0.00
2019-05-15T00:24:03.299Z,0.00
2019-05-15T00:25:03.244Z,0.00
2019-05-15T00:26:03.239Z,0.00
2019-05-15T00:27:03.228Z,0.00
2019-05-15T00:28:03.213Z,0.00
2019-05-15T00:29:14.818Z,0.00
2019-05-15T00:30:04.207Z,0.00
2019-05-15T00:31:03.179Z,0.00
2019-05-15T00:32:03.184Z,0.00
2019-05-15T00:33:03.155Z,0.00
2019-05-15T00:34:03.152Z,0.00
2019-05-15T00:35:03.153Z,0.00
2019-05-15T00:36:03.128Z,0.00
2019-05-15T00:37:03.119Z,0.00
2019-05-15T00:38:03.104Z,0.00
2019-05-15T00:39:03.095Z,0.00
2019-05-15T00:40:03.090Z,0.00
2019-05-15T00:41:03.065Z,0.00
2019-05-15T00:42:03.100Z,0.00
2019-05-15T00:43:03.046Z,0.00
2019-05-15T00:44:03.038Z,0.00
2019-05-15T00:45:03.032Z,0.00
2019-05-15T00:46:03.013Z,0.00
2019-05-15T00:47:02.998Z,0.00
2019-05-15T00:48:02.991Z,0.00
2019-05-15T00:49:02.979Z,0.00
2019-05-15T00:50:02.975Z,0.00
2019-05-15T00:51:02.954Z,0.00
2019-05-15T00:52:02.960Z,0.00
2019-05-15T00:53:02.933Z,0.00
2019-05-15T00:54:02.920Z,0.00
2019-05-15T00:55:02.921Z,0.00
2019-05-15T00:56:02.901Z,0.00
2019-05-15T00:57:02.888Z,0.00
2019-05-15T00:58:02.878Z,0.00
2019-05-15T00:59:02.863Z,0.00
2019-05-15T01:00:02.861Z,0.00
2019-05-15T01:01:02.841Z,0.00
2019-05-15T01:02:02.836Z,0.00
2019-05-15T01:03:02.819Z,0.00
2019-05-15T01:04:02.808Z,0.00
2019-05-15T01:05:02.809Z,0.00
2019-05-15T01:06:02.798Z,0.00
2019-05-15T01:07:02.776Z,0.00
2019-05-15T01:08:02.764Z,0.00
2019-05-15T01:09:02.774Z,0.00
2019-05-15T01:10:02.753Z,0.00
2019-05-15T01:11:02.729Z,0.00
2019-05-15T01:12:02.720Z,0.00
2019-05-15T01:13:02.707Z,0.00
2019-05-15T01:14:02.708Z,0.00
2019-05-15T01:15:02.698Z,0.00
2019-05-15T01:16:02.676Z,0.00
2019-05-15T01:17:02.664Z,0.00
2019-05-15T01:18:02.651Z,0.00
2019-05-15T01:19:02.641Z,0.00
2019-05-15T01:20:02.644Z,0.00
2019-05-15T01:21:02.619Z,0.00
2019-05-15T01:22:02.611Z,0.00
2019-05-15T01:23:02.602Z,0.00
2019-05-15T01:24:02.584Z,0.00
2019-05-15T01:25:02.586Z,0.00
2019-05-15T01:26:02.562Z,0.00
2019-05-15T01:27:02.555Z,0.00
2019-05-15T01:28:02.544Z,0.00
2019-05-15T01:29:02.528Z,0.00
2019-05-15T01:30:02.517Z,0.00
2019-05-15T01:31:02.515Z,0.00
2019-05-15T01:32:02.493Z,0.00
2019-05-15T01:33:02.486Z,0.00
2019-05-15T01:34:02.478Z,0.00
2019-05-15T01:35:02.474Z,0.00
2019-05-15T01:36:02.461Z,0.00
2019-05-15T01:37:02.454Z,0.00
2019-05-15T01:38:02.430Z,0.00
2019-05-15T01:39:02.415Z,0.00
2019-05-15T01:40:02.406Z,0.00
2019-05-15T05:45:01.014Z,4068.00
2019-05-15T05:46:00.993Z,4148.00
2019-05-15T05:47:00.981Z,4244.00
2019-05-15T05:48:00.972Z,4360.00
2019-05-15T05:49:00.962Z,4436.00
2019-05-15T05:50:00.955Z,4492.00
2019-05-15T05:51:00.937Z,4544.00
2019-05-15T05:52:00.929Z,4588.00
2019-05-15T05:53:00.917Z,4628.00
2019-05-15T05:54:00.904Z,4680.00
2019-05-15T05:55:00.910Z,4736.00
2019-05-15T05:56:00.881Z,4784.00
2019-05-15T05:57:00.870Z,4840.00
2019-05-15T05:58:00.861Z,4908.00
2019-05-15T05:59:00.845Z,4976.00
2019-05-15T06:00:00.845Z,5056.00
2019-05-15T06:01:00.968Z,5144.00
2019-05-15T06:02:00.856Z,5232.00
2019-05-15T06:03:00.805Z,5324.00
2019-05-15T06:04:00.791Z,5436.00
2019-05-15T06:05:00.789Z,5552.00
2019-05-15T06:06:00.769Z,5684.00
2019-05-15T06:07:13.823Z,5860.00
2019-05-15T06:08:01.745Z,6064.00
2019-05-15T06:09:00.732Z,6300.00
2019-05-15T06:10:00.734Z,6576.00
2019-05-15T06:11:00.733Z,6880.00
2019-05-15T06:12:00.747Z,7232.00
2019-05-15T06:13:00.686Z,7684.00
2019-05-15T06:14:00.679Z,8248.00
2019-05-15T06:15:00.675Z,8772.00
2019-05-15T06:16:00.659Z,9172.00
2019-05-15T06:17:00.645Z,9452.00
2019-05-15T06:18:00.632Z,9744.00
2019-05-15T06:19:00.644Z,9964.00
2019-05-15T06:20:00.621Z,10112.00
2019-05-15T06:21:00.602Z,10272.00
2019-05-15T06:22:01.155Z,10616.00
2019-05-15T06:23:00.582Z,10972.00
2019-05-15T06:24:04.504Z,11752.00
2019-05-15T06:25:04.892Z,16544.00
2019-05-15T06:26:00.540Z,25632.00
2019-05-15T06:27:00.538Z,32512.00
2019-05-15T06:28:00.653Z,34112.00
2019-05-15T06:29:00.533Z,33376.00
2019-05-15T06:30:00.503Z,32544.00
2019-05-15T06:31:00.931Z,32544.00
2019-05-15T06:32:00.475Z,34432.00
2019-05-15T06:33:09.045Z,37120.00
2019-05-15T06:34:01.489Z,37600.00
2019-05-15T06:35:00.438Z,34112.00
2019-05-15T06:36:00.438Z,23968.00
2019-05-15T06:37:00.418Z,12780.00
2019-05-15T06:38:00.403Z,8324.00
2019-05-15T06:39:00.397Z,7688.00
2019-05-15T06:40:00.381Z,7396.00
2019-05-15T06:41:00.380Z,7172.00
2019-05-15T06:42:00.358Z,7088.00
2019-05-15T06:43:00.370Z,7076.00
2019-05-15T06:44:00.346Z,7116.00
2019-05-15T06:45:00.326Z,7228.00
2019-05-15T06:46:00.330Z,7436.00
2019-05-15T06:47:00.305Z,7832.00
2019-05-15T06:48:01.596Z,9300.00
2019-05-15T06:49:00.287Z,19136.00
2019-05-15T06:50:00.273Z,29504.00
2019-05-15T06:51:00.261Z,33440.00
2019-05-15T06:52:00.256Z,40096.00
2019-05-15T06:53:00.238Z,44352.00
2019-05-15T06:54:00.235Z,45760.00
2019-05-15T06:55:00.211Z,45152.00
2019-05-15T06:56:00.205Z,43040.00
2019-05-15T06:57:00.190Z,42336.00
2019-05-15T06:58:00.175Z,43808.00
2019-05-15T06:59:00.177Z,46400.00
2019-05-15T07:00:00.154Z,48512.00
2019-05-15T07:01:00.213Z,47872.00
2019-05-15T07:02:00.139Z,47232.00
2019-05-15T07:03:00.122Z,47744.00
2019-05-15T07:04:00.117Z,47360.00
2019-05-15T07:05:00.101Z,49504.00
2019-05-15T07:06:00.162Z,49408.00
2019-05-15T07:07:00.075Z,48960.00
2019-05-15T07:08:00.064Z,19808.00
2019-05-15T07:09:00.066Z,5884.00
2019-05-15T07:10:00.046Z,29408.00
2019-05-15T07:11:00.038Z,27744.00
2019-05-15T07:12:00.020Z,50528.00
2019-05-15T07:13:00.011Z,44544.00
2019-05-15T07:14:00.006Z,48480.00
2019-05-15T07:15:00.007Z,38976.00
2019-05-15T07:15:59.977Z,31840.00
2019-05-15T07:16:59.969Z,13760.00
2019-05-15T07:17:59.954Z,6468.00
2019-05-15T07:18:59.951Z,5336.00
2019-05-15T07:19:59.929Z,12308.00
2019-05-15T07:20:59.958Z,39936.00
2019-05-15T07:21:59.912Z,50048.00
2019-05-15T07:22:59.895Z,44352.00
2019-05-15T07:23:59.903Z,24800.00
2019-05-15T07:24:59.872Z,26784.00
2019-05-15T07:25:59.861Z,7192.00
2019-05-15T07:26:59.862Z,9424.00
2019-05-15T07:27:59.836Z,6868.00
2019-05-15T07:29:02.217Z,4876.00
2019-05-15T07:29:59.815Z,4900.00
2019-05-15T07:30:59.807Z,8444.00
2019-05-15T07:31:59.792Z,10524.00
2019-05-15T07:32:59.781Z,6340.00
2019-05-15T07:34:00.024Z,14708.00
2019-05-15T07:34:59.766Z,12980.00
2019-05-15T07:35:59.752Z,5232.00
2019-05-15T07:36:59.734Z,20064.00
2019-05-15T07:37:59.726Z,7888.00
2019-05-15T07:38:59.711Z,4652.00
2019-05-15T07:39:59.710Z,4340.00
2019-05-15T07:41:04.022Z,4644.00
2019-05-15T07:41:59.680Z,5028.00
2019-05-15T07:42:59.675Z,10380.00
2019-05-15T07:43:59.660Z,4732.00
2019-05-15T07:44:59.656Z,4692.00
2019-05-15T07:45:59.634Z,7836.00
2019-05-15T07:46:59.624Z,9540.00
2019-05-15T07:47:59.612Z,14496.00
2019-05-15T07:48:59.601Z,36832.00
2019-05-15T07:49:59.598Z,25088.00
2019-05-15T07:50:59.640Z,15620.00
2019-05-15T07:51:59.567Z,34016.00
2019-05-15T07:52:59.574Z,55968.00
2019-05-15T07:54:02.547Z,58464.00
2019-05-15T07:54:59.547Z,29984.00
2019-05-15T07:56:01.132Z,55456.00
2019-05-15T07:56:59.514Z,8300.00
2019-05-15T07:57:59.568Z,6680.00
2019-05-15T07:58:59.490Z,10916.00
2019-05-15T07:59:59.489Z,15968.00
2019-05-15T08:00:59.474Z,6680.00
2019-05-15T08:01:59.475Z,4632.00
2019-05-15T08:02:59.449Z,4420.00
2019-05-15T08:04:20.498Z,4428.00
2019-05-15T08:05:00.431Z,6476.00
2019-05-15T08:06:02.984Z,8556.00
2019-05-15T08:06:59.464Z,5404.00
2019-05-15T08:07:59.392Z,5288.00
2019-05-15T08:08:59.421Z,5580.00
2019-05-15T08:09:59.514Z,6272.00
2019-05-15T08:10:59.419Z,6120.00
2019-05-15T08:12:02.805Z,4900.00
2019-05-15T08:12:59.332Z,8176.00
2019-05-15T08:13:59.322Z,8644.00
2019-05-15T08:14:59.341Z,5540.00
2019-05-15T08:15:59.307Z,5644.00
2019-05-15T08:16:59.443Z,5512.00
2019-05-15T08:18:08.529Z,4912.00
2019-05-15T08:19:00.263Z,4636.00
2019-05-15T08:19:59.270Z,4624.00
2019-05-15T08:20:59.244Z,4868.00
2019-05-15T08:21:59.228Z,4816.00
2019-05-15T08:22:59.218Z,4956.00
2019-05-15T08:23:59.250Z,4828.00
2019-05-15T08:24:59.301Z,4804.00
2019-05-15T08:25:59.208Z,4868.00
2019-05-15T08:26:59.175Z,4764.00
2019-05-15T08:27:59.338Z,4816.00
2019-05-15T08:28:59.153Z,5352.00
2019-05-15T08:29:59.145Z,5296.00
2019-05-15T08:30:59.163Z,5540.00
2019-05-15T08:31:59.291Z,7596.00
2019-05-15T08:32:59.149Z,5364.00
2019-05-15T08:34:12.636Z,10632.00
2019-05-15T08:35:00.087Z,7192.00
2019-05-15T08:35:59.088Z,10876.00
2019-05-15T08:36:59.183Z,34208.00
2019-05-15T08:37:59.050Z,44224.00
2019-05-15T08:38:59.233Z,39264.00
2019-05-15T08:39:59.562Z,45376.00
2019-05-15T08:40:59.368Z,33632.00
2019-05-15T08:41:59.010Z,17856.00
2019-05-15T08:43:02.039Z,36960.00
2019-05-15T08:43:58.982Z,13672.00
2019-05-15T08:44:58.973Z,15352.00
2019-05-15T08:45:58.972Z,24384.00
2019-05-15T08:46:59.181Z,24096.00
2019-05-15T08:47:58.947Z,21856.00
2019-05-15T08:48:58.940Z,18400.00
2019-05-15T08:49:58.929Z,38336.00
2019-05-15T08:50:58.929Z,12404.00
2019-05-15T08:51:58.895Z,20960.00
2019-05-15T08:52:58.891Z,37600.00
2019-05-15T08:53:58.912Z,56928.00
2019-05-15T08:54:59.277Z,60160.00
2019-05-15T08:55:59.014Z,84800.00
2019-05-15T08:56:59.304Z,41248.00
2019-05-15T08:58:07.497Z,20192.00
2019-05-15T08:58:59.813Z,19424.00
2019-05-15T08:59:58.812Z,23104.00
2019-05-15T09:00:59.058Z,29632.00
2019-05-15T09:01:58.782Z,25440.00
2019-05-15T09:02:58.770Z,34592.00
2019-05-15T09:03:58.777Z,35104.00
2019-05-15T09:04:58.752Z,69760.00
2019-05-15T09:05:59.161Z,31552.00
2019-05-15T09:07:01.311Z,86144.00
2019-05-15T09:07:58.713Z,34368.00
2019-05-15T09:08:58.705Z,82880.00
2019-05-15T09:09:58.691Z,85280.00
2019-05-15T09:10:58.852Z,78080.00
2019-05-15T09:11:58.667Z,83552.00
2019-05-15T09:12:58.775Z,85056.00
2019-05-15T09:13:59.493Z,55488.00
2019-05-15T09:14:58.636Z,61248.00
2019-05-15T09:15:59.027Z,34016.00
2019-05-15T09:16:58.612Z,36800.00
2019-05-15T09:18:09.176Z,28032.00
2019-05-15T09:18:59.592Z,11496.00
2019-05-15T09:19:58.893Z,32288.00
2019-05-15T09:20:59.327Z,50272.00
2019-05-15T09:21:58.716Z,83264.00
2019-05-15T09:22:58.550Z,83744.00
2019-05-15T09:23:59.064Z,82848.00
2019-05-15T09:24:59.048Z,75552.00
2019-05-15T09:25:58.525Z,73440.00
2019-05-15T09:26:59.582Z,69728.00
2019-05-15T09:27:58.493Z,68256.00
2019-05-15T09:28:58.690Z,74336.00
2019-05-15T09:29:59.176Z,80576.00
2019-05-15T09:30:59.025Z,87104.00
2019-05-15T09:31:58.984Z,85440.00
2019-05-15T09:32:58.841Z,88608.00
2019-05-15T09:33:58.742Z,89088.00
2019-05-15T09:34:59.183Z,86784.00
2019-05-15T09:35:58.565Z,86112.00
2019-05-15T09:36:59.932Z,84064.00
2019-05-15T09:37:58.472Z,78784.00
2019-05-15T09:38:58.656Z,73536.00
2019-05-15T09:39:58.543Z,69824.00
2019-05-15T09:40:58.735Z,72672.00
2019-05-15T09:41:58.352Z,74240.00
2019-05-15T09:42:58.348Z,78496.00
2019-05-15T09:43:58.326Z,81120.00
2019-05-15T09:44:58.427Z,87328.00
2019-05-15T09:45:58.541Z,95200.00
2019-05-15T09:46:58.590Z,97120.00
2019-05-15T09:47:58.985Z,101568.00
2019-05-15T09:48:59.271Z,96800.00
2019-05-15T09:49:58.909Z,95360.00
2019-05-15T09:50:58.846Z,92352.00
2019-05-15T09:51:58.651Z,91936.00
2019-05-15T09:52:58.852Z,89920.00
2019-05-15T09:53:59.557Z,92096.00
2019-05-15T09:54:59.256Z,90976.00
2019-05-15T09:55:59.909Z,92512.00
2019-05-15T09:56:58.619Z,93472.00
2019-05-15T09:57:59.090Z,96704.00
2019-05-15T09:58:58.434Z,96768.00
2019-05-15T09:59:58.683Z,98656.00
2019-05-15T10:00:58.268Z,95392.00
2019-05-15T10:01:58.919Z,89472.00
2019-05-15T10:02:58.286Z,85856.00
2019-05-15T10:03:58.237Z,82432.00
2019-05-15T10:05:06.720Z,76896.00
2019-05-15T10:05:59.216Z,81088.00
2019-05-15T10:06:58.339Z,80608.00
2019-05-15T10:07:58.127Z,88032.00
2019-05-15T10:08:58.117Z,89344.00
2019-05-15T10:09:58.095Z,93984.00
2019-05-15T10:10:59.344Z,93632.00
2019-05-15T10:11:58.078Z,90016.00
2019-05-15T10:12:59.471Z,90752.00
2019-05-15T10:13:58.526Z,92448.00
2019-05-15T10:14:59.213Z,88032.00
2019-05-15T10:15:58.634Z,84544.00
2019-05-15T10:16:58.477Z,80768.00
2019-05-15T10:17:59.748Z,85472.00
2019-05-15T10:18:58.294Z,86976.00
2019-05-15T10:19:58.329Z,94048.00
2019-05-15T10:20:58.264Z,97920.00
2019-05-15T10:21:59.522Z,99456.00
2019-05-15T10:22:59.040Z,99328.00
2019-05-15T10:23:59.002Z,93248.00
2019-05-15T10:24:58.748Z,92896.00
2019-05-15T10:25:58.890Z,92896.00
2019-05-15T10:26:58.129Z,92960.00
2019-05-15T10:27:58.053Z,93440.00
2019-05-15T10:28:58.455Z,85888.00
2019-05-15T10:29:58.842Z,78432.00
2019-05-15T10:31:00.022Z,78240.00
2019-05-15T10:31:57.859Z,85952.00
2019-05-15T10:32:57.825Z,96512.00
2019-05-15T10:33:58.302Z,100352.00
2019-05-15T10:34:58.631Z,100800.00
2019-05-15T10:35:59.081Z,96256.00
2019-05-15T10:36:58.908Z,93248.00
2019-05-15T10:37:59.173Z,91968.00
2019-05-15T10:38:59.285Z,64160.00
2019-05-15T10:39:58.461Z,19936.00
2019-05-15T10:41:08.233Z,12324.00
2019-05-15T10:41:58.761Z,11624.00
2019-05-15T10:42:59.419Z,11312.00
2019-05-15T10:44:00.103Z,11144.00
2019-05-15T10:44:58.846Z,11036.00
2019-05-15T10:45:58.718Z,11120.00
2019-05-15T10:46:58.508Z,11248.00
2019-05-15T10:47:58.567Z,11520.00
2019-05-15T10:48:58.587Z,11996.00
2019-05-15T10:49:59.949Z,13340.00
2019-05-15T10:51:01.774Z,37952.00
2019-05-15T10:51:58.634Z,82592.00
2019-05-15T10:52:57.638Z,93184.00
2019-05-15T10:53:57.615Z,89568.00
2019-05-15T10:54:58.138Z,90912.00
2019-05-15T10:55:59.554Z,93792.00
2019-05-15T10:57:00.536Z,96096.00
2019-05-15T10:57:57.585Z,95488.00
2019-05-15T10:58:58.858Z,101088.00
2019-05-15T10:59:58.440Z,102112.00
2019-05-15T11:01:01.783Z,101120.00
2019-05-15T11:01:59.175Z,103264.00
2019-05-15T11:02:57.979Z,104000.00
2019-05-15T11:03:58.936Z,105728.00
2019-05-15T11:04:57.929Z,104096.00
2019-05-15T11:05:57.968Z,98720.00
2019-05-15T11:06:58.120Z,97792.00
2019-05-15T11:07:58.905Z,94240.00
2019-05-15T11:08:58.316Z,93248.00
2019-05-15T11:09:58.189Z,96640.00
2019-05-15T11:10:58.523Z,99680.00
2019-05-15T11:11:58.330Z,103296.00
2019-05-15T11:12:58.116Z,101888.00
2019-05-15T11:14:00.318Z,98048.00
2019-05-15T11:14:57.410Z,97152.00
2019-05-15T11:15:57.400Z,100640.00
2019-05-15T11:16:58.960Z,103296.00
2019-05-15T11:17:58.447Z,102432.00
2019-05-15T11:18:58.511Z,100384.00
2019-05-15T11:19:58.667Z,96544.00
2019-05-15T11:20:59.311Z,95008.00
2019-05-15T11:21:58.361Z,97344.00
2019-05-15T11:22:59.112Z,98656.00
2019-05-15T11:23:59.015Z,98208.00
2019-05-15T11:24:59.444Z,95776.00
2019-05-15T11:25:58.162Z,89856.00
2019-05-15T11:26:59.443Z,89024.00
2019-05-15T11:27:58.980Z,93568.00
2019-05-15T11:28:58.790Z,98368.00
2019-05-15T11:29:58.533Z,103680.00
2019-05-15T11:30:59.469Z,103360.00
2019-05-15T11:31:58.088Z,99584.00
2019-05-15T11:32:58.723Z,97856.00
2019-05-15T11:33:58.577Z,104256.00
2019-05-15T11:34:58.257Z,106720.00
2019-05-15T11:36:05.079Z,103072.00
2019-05-15T11:36:59.346Z,102624.00
2019-05-15T11:37:57.292Z,101152.00
2019-05-15T11:38:57.202Z,102464.00
2019-05-15T11:39:58.998Z,99808.00
2019-05-15T11:40:57.173Z,94464.00
2019-05-15T11:41:57.166Z,85472.00
2019-05-15T11:42:57.155Z,82176.00
2019-05-15T11:43:57.145Z,89024.00
2019-05-15T11:44:58.435Z,93920.00
2019-05-15T11:45:58.894Z,98368.00
2019-05-15T11:46:58.625Z,99648.00
2019-05-15T11:47:57.105Z,100736.00
2019-05-15T11:48:58.807Z,100672.00
2019-05-15T11:49:58.514Z,96288.00
2019-05-15T11:50:57.096Z,97728.00
2019-05-15T11:52:00.666Z,100480.00
2019-05-15T11:52:58.555Z,106528.00
2019-05-15T11:53:58.787Z,106400.00
2019-05-15T11:54:58.914Z,104928.00
2019-05-15T11:55:59.646Z,102848.00
2019-05-15T11:56:59.527Z,101632.00
2019-05-15T11:57:59.258Z,103520.00
2019-05-15T11:58:57.009Z,104768.00
2019-05-15T11:59:59.630Z,102016.00
2019-05-15T12:00:57.976Z,101440.00
2019-05-15T12:01:58.081Z,100192.00
2019-05-15T12:02:58.401Z,101696.00
2019-05-15T12:03:58.500Z,100544.00
2019-05-15T12:04:58.423Z,104416.00
2019-05-15T12:05:59.684Z,105504.00
2019-05-15T12:07:02.080Z,106592.00
2019-05-15T12:07:57.923Z,104160.00
2019-05-15T12:08:59.168Z,62848.00
2019-05-15T12:09:58.072Z,17504.00
2019-05-15T12:10:59.111Z,13404.00
2019-05-15T12:11:56.873Z,12864.00
2019-05-15T12:12:56.921Z,12736.00
2019-05-15T12:13:56.918Z,12776.00
2019-05-15T12:14:56.845Z,13060.00
2019-05-15T12:15:58.929Z,14288.00
2019-05-15T12:17:09.628Z,45440.00
2019-05-15T12:17:59.143Z,84992.00
2019-05-15T12:19:08.541Z,92352.00
2019-05-15T12:20:05.230Z,92544.00
2019-05-15T12:20:59.604Z,96128.00
2019-05-15T12:21:59.627Z,102592.00
2019-05-15T12:22:59.224Z,104672.00
2019-05-15T12:23:59.120Z,105952.00
2019-05-15T12:25:00.156Z,100992.00
2019-05-15T12:25:59.343Z,91776.00
2019-05-15T12:27:07.349Z,57344.00
2019-05-15T12:27:59.632Z,26464.00
2019-05-15T12:28:59.019Z,11264.00
2019-05-15T12:29:59.754Z,10452.00
2019-05-15T12:30:59.632Z,10340.00
2019-05-15T12:31:58.934Z,18176.00
2019-05-15T12:33:00.331Z,43968.00
2019-05-15T12:33:58.454Z,44576.00
2019-05-15T12:35:00.079Z,20000.00
2019-05-15T12:35:56.638Z,9660.00
2019-05-15T12:36:58.071Z,9000.00
2019-05-15T12:37:56.617Z,8668.00
2019-05-15T12:38:56.608Z,8484.00
2019-05-15T12:59:58.222Z,5680.00
2019-05-15T13:00:57.919Z,5684.00
2019-05-15T13:01:58.510Z,5704.00
2019-05-15T13:02:59.017Z,5708.00
2019-05-15T13:03:57.987Z,5716.00
2019-05-15T13:04:56.332Z,5692.00
2019-05-15T13:05:56.328Z,5684.00
2019-05-15T13:07:12.272Z,5664.00
2019-05-15T13:07:57.297Z,5632.00
2019-05-15T13:08:56.287Z,5632.00
2019-05-15T13:09:57.984Z,5636.00
2019-05-15T13:10:56.275Z,5640.00
2019-05-15T13:11:56.258Z,5632.00
2019-05-15T13:13:04.174Z,5640.00
2019-05-15T13:13:59.077Z,5660.00
2019-05-15T13:14:58.884Z,5656.00
2019-05-15T13:15:58.702Z,5684.00
2019-05-15T13:16:58.630Z,5712.00
2019-05-15T13:17:59.512Z,5728.00
2019-05-15T13:18:56.186Z,5748.00
2019-05-15T13:19:58.507Z,5792.00
2019-05-15T13:20:59.177Z,5844.00
2019-05-15T13:21:57.935Z,5952.00
2019-05-15T13:22:56.143Z,5916.00
2019-05-15T13:23:56.121Z,6116.00
2019-05-15T13:24:58.681Z,6240.00
2019-05-15T13:25:58.770Z,6384.00
2019-05-15T13:26:58.222Z,6472.00
2019-05-15T13:27:57.990Z,6668.00
2019-05-15T13:28:58.330Z,6820.00
2019-05-15T13:29:58.249Z,6952.00
2019-05-15T13:30:56.052Z,7072.00
2019-05-15T13:31:58.281Z,7200.00
2019-05-15T13:32:58.601Z,7348.00
2019-05-15T13:33:58.570Z,7468.00
2019-05-15T13:34:59.268Z,7560.00
2019-05-15T13:35:58.435Z,7644.00
2019-05-15T13:36:55.982Z,7680.00
2019-05-15T13:37:58.470Z,7696.00
2019-05-15T13:38:57.869Z,7700.00
2019-05-15T13:39:58.526Z,7588.00
2019-05-15T13:40:55.943Z,7756.00
2019-05-15T13:41:55.923Z,7720.00
2019-05-15T13:42:55.913Z,7760.00
2019-05-15T13:43:58.208Z,7820.00
2019-05-15T13:44:58.511Z,7908.00
2019-05-15T13:45:57.954Z,7984.00
2019-05-15T13:46:57.993Z,8192.00
2019-05-15T13:47:55.859Z,9084.00
2019-05-15T13:48:55.845Z,8956.00
2019-05-15T13:49:55.833Z,9792.00
2019-05-15T13:50:55.832Z,20192.00
2019-05-15T13:51:55.815Z,61504.00
2019-05-15T13:52:55.801Z,79040.00
2019-05-15T13:53:55.795Z,75488.00
2019-05-15T13:54:55.782Z,73824.00
2019-05-15T13:55:55.786Z,70304.00
2019-05-15T13:56:58.065Z,68544.00
2019-05-15T13:57:57.933Z,70240.00
2019-05-15T13:58:55.736Z,69184.00
2019-05-15T13:59:55.730Z,63680.00
2019-05-15T14:00:58.517Z,68032.00
2019-05-15T14:01:55.711Z,78464.00
2019-05-15T14:02:55.694Z,77952.00
2019-05-15T14:03:55.705Z,74048.00
2019-05-15T14:04:58.127Z,74016.00
2019-05-15T14:05:58.126Z,76256.00
2019-05-15T14:06:57.781Z,78144.00
2019-05-15T14:07:58.167Z,75776.00
2019-05-15T14:08:57.969Z,51264.00
2019-05-15T14:09:55.619Z,19936.00
2019-05-15T14:10:55.619Z,9156.00
2019-05-15T14:11:55.600Z,8956.00
2019-05-15T14:12:55.586Z,18848.00
2019-05-15T14:13:55.583Z,52160.00
2019-05-15T14:14:58.039Z,78656.00
2019-05-15T14:15:58.080Z,77216.00
2019-05-15T14:16:55.545Z,75776.00
2019-05-15T14:17:57.693Z,74464.00
2019-05-15T14:18:55.523Z,76384.00
2019-05-15T14:19:57.932Z,74272.00
2019-05-15T14:20:55.506Z,71392.00
2019-05-15T14:21:55.508Z,70784.00
2019-05-15T14:22:55.497Z,72160.00
2019-05-15T14:23:55.469Z,69216.00
2019-05-15T14:24:55.462Z,66048.00
2019-05-15T14:25:55.450Z,73184.00
2019-05-15T14:26:55.453Z,76832.00
2019-05-15T14:27:55.430Z,67904.00
2019-05-15T14:28:55.426Z,46656.00
2019-05-15T14:29:55.407Z,23648.00
2019-05-15T14:30:55.400Z,9996.00
2019-05-15T14:31:55.399Z,9388.00
2019-05-15T14:32:55.699Z,9732.00
2019-05-15T14:33:55.376Z,15456.00
2019-05-15T14:34:55.354Z,32864.00
2019-05-15T14:35:55.343Z,51328.00
2019-05-15T14:36:55.343Z,61792.00
2019-05-15T14:38:03.637Z,59104.00
2019-05-15T14:38:58.589Z,49280.00
2019-05-15T14:39:55.302Z,25920.00
2019-05-15T14:40:55.292Z,9764.00
2019-05-15T14:41:55.291Z,9160.00
2019-05-15T14:42:55.268Z,10320.00
2019-05-15T14:43:57.711Z,30336.00
2019-05-15T14:44:55.249Z,57344.00
2019-05-15T14:45:55.238Z,67680.00
2019-05-15T14:46:55.235Z,67456.00
2019-05-15T14:47:55.230Z,65312.00
2019-05-15T14:48:55.206Z,62976.00
2019-05-15T14:49:55.199Z,65632.00
2019-05-15T14:50:55.184Z,68608.00
2019-05-15T14:52:05.772Z,52672.00
2019-05-15T14:52:58.413Z,53088.00
2019-05-15T14:53:55.196Z,50752.00
2019-05-15T14:54:55.142Z,40416.00
2019-05-15T14:55:55.142Z,22592.00
2019-05-15T14:56:55.142Z,10028.00
2019-05-15T14:57:55.117Z,8844.00
2019-05-15T14:58:55.101Z,8768.00
2019-05-15T14:59:55.091Z,9460.00
2019-05-15T15:00:55.084Z,16832.00
2019-05-15T15:01:55.091Z,30688.00
2019-05-15T15:02:55.068Z,50976.00
2019-05-15T15:03:55.049Z,60064.00
2019-05-15T15:04:55.036Z,53888.00
2019-05-15T15:05:55.073Z,51712.00
2019-05-15T15:06:55.022Z,42912.00
2019-05-15T15:07:55.027Z,35488.00
2019-05-15T15:08:54.999Z,30560.00
2019-05-15T15:09:54.985Z,33152.00
2019-05-15T15:10:54.999Z,23680.00
2019-05-15T15:11:54.991Z,10468.00
2019-05-15T15:12:54.961Z,7408.00
2019-05-15T15:13:54.942Z,7632.00
2019-05-15T15:14:54.939Z,8956.00
2019-05-15T15:15:54.922Z,26464.00
2019-05-15T15:16:54.911Z,50016.00
2019-05-15T15:17:54.906Z,61440.00
2019-05-15T15:18:54.893Z,62144.00
2019-05-15T15:19:54.889Z,58688.00
2019-05-15T15:20:54.867Z,50080.00
2019-05-15T15:21:54.859Z,47328.00
2019-05-15T15:22:54.989Z,44512.00
2019-05-15T15:23:54.929Z,35968.00
2019-05-15T15:24:54.926Z,21696.00
2019-05-15T15:25:54.811Z,10040.00
2019-05-15T15:26:54.803Z,7004.00
2019-05-15T15:27:54.803Z,6076.00
2019-05-15T15:28:54.778Z,5652.00
2019-05-15T15:29:54.768Z,5960.00
2019-05-15T15:30:54.757Z,12124.00
2019-05-15T15:31:54.752Z,20960.00
2019-05-15T15:32:54.742Z,17952.00
2019-05-15T15:33:54.724Z,5388.00
2019-05-15T15:34:54.715Z,3632.00
2019-05-15T15:35:54.704Z,3436.00
2019-05-15T15:36:54.696Z,3316.00
2019-05-15T15:37:54.713Z,3232.00
2019-05-15T15:38:54.669Z,3136.00
2019-05-15T15:39:54.658Z,3060.00
2019-05-15T15:40:54.647Z,3036.00
2019-05-15T15:41:54.636Z,3008.00
2019-05-15T15:42:54.640Z,2948.00
2019-05-15T15:43:54.616Z,2896.00
2019-05-15T15:44:54.603Z,2872.00
2019-05-15T15:45:54.601Z,2844.00
2019-05-15T15:46:54.583Z,2824.00
2019-05-15T15:47:54.594Z,2808.00
2019-05-15T15:48:54.574Z,2788.00
2019-05-15T15:49:54.551Z,2768.00
2019-05-15T15:50:54.539Z,2748.00
2019-05-15T15:51:54.530Z,2744.00
2019-05-15T15:52:54.525Z,2724.00
2019-05-15T15:53:54.505Z,2708.00
2019-05-15T15:54:54.492Z,2680.00
2019-05-15T15:55:54.481Z,2648.00
2019-05-15T15:56:54.470Z,2628.00
2019-05-15T15:57:54.474Z,2616.00
2019-05-15T15:58:54.451Z,2600.00
2019-05-15T15:59:54.456Z,2584.00
2019-05-15T16:00:54.437Z,2576.00
2019-05-15T16:01:54.435Z,2556.00
2019-05-15T16:02:54.443Z,2540.00
2019-05-15T16:03:54.393Z,2524.00
2019-05-15T16:04:54.383Z,2508.00
2019-05-15T16:05:54.372Z,2500.00
2019-05-15T16:06:54.375Z,2484.00
2019-05-15T16:07:54.346Z,2476.00
2019-05-15T16:08:55.894Z,2452.00
2019-05-15T16:09:54.329Z,2440.00
2019-05-15T16:10:54.314Z,2420.00
2019-05-15T16:11:54.307Z,2416.00
2019-05-15T16:12:54.294Z,2388.00
2019-05-15T16:13:54.305Z,2372.00
2019-05-15T16:14:54.271Z,2356.00
2019-05-15T16:15:54.260Z,2332.00
2019-05-15T16:16:54.248Z,2316.00
2019-05-15T16:17:54.238Z,2296.00
2019-05-15T16:18:54.238Z,2284.00
2019-05-15T16:19:54.215Z,2272.00
2019-05-15T16:20:54.205Z,2256.00
2019-05-15T16:21:54.197Z,2244.00
2019-05-15T16:22:54.180Z,2228.00
2019-05-15T16:23:54.188Z,2212.00
2019-05-15T16:24:54.166Z,2204.00